Time;durP1;ratioP1;P1;durP2;ratioP2;P2;SDS_P1;SDS_P2;PMS_P1;PMS_P2;Temp;Humidity;BMP_temperature;BMP_pressure;BME280_temperature;BME280_humidity;BME280_pressure;Samples;Min_cycle;Max_cycle;Signal;HPM_P1;HPM_P2
2022/09/28 00:01:13;;;;;;;2.95;1.20;;;;;;;14.60;59.75;92865.81;5051581;28;20065;-77
2022/09/28 00:03:39;;;;;;;3.13;1.17;;;;;;;14.46;59.14;92833.47;5052458;28;20088;-79
2022/09/28 00:06:07;;;;;;;1.55;1.20;;;;;;;14.46;59.05;92822.00;5053639;28;20180;-76
2022/09/28 00:08:36;;;;;;;1.38;1.15;;;;;;;14.79;58.91;92872.16;5051501;28;20028;-77
2022/09/28 00:11:04;;;;;;;2.92;1.00;;;;;;;14.87;58.86;92885.28;5053730;28;20143;-78
2022/09/28 00:13:32;;;;;;;2.22;1.13;;;;;;;14.74;58.76;92864.44;5051067;28;20021;-78
2022/09/28 00:16:05;;;;;;;2.28;1.20;;;;;;;14.89;59.14;92884.94;5053596;28;20517;-77
2022/09/28 00:18:31;;;;;;;1.38;1.00;;;;;;;14.83;58.66;92878.34;5052379;28;20754;-78
2022/09/28 00:21:13;;;;;;;1.80;1.00;;;;;;;14.86;59.07;92877.63;5052426;28;20033;-77
2022/09/28 00:24:26;;;;;;;2.42;1.23;;;;;;;14.91;59.20;92882.69;5055798;28;20047;-77
2022/09/28 00:26:27;;;;;;;6.30;1.27;;;;;;;14.92;58.94;92881.53;5046885;28;20028;-77
2022/09/28 00:28:54;;;;;;;1.60;1.02;;;;;;;14.85;58.85;92860.03;5052028;28;20025;-77
2022/09/28 00:31:22;;;;;;;5.63;1.17;;;;;;;14.58;58.16;92852.00;5051944;28;20140;-77
2022/09/28 00:33:51;;;;;;;1.85;1.10;;;;;;;14.52;58.04;92848.06;5052406;28;20121;-76
2022/09/28 00:36:17;;;;;;;4.38;1.00;;;;;;;14.71;58.70;92875.91;5052205;28;20032;-77
2022/09/28 00:38:43;;;;;;;3.83;1.08;;;;;;;14.68;58.59;92871.25;5053838;28;20029;-77
2022/09/28 00:41:11;;;;;;;3.58;1.25;;;;;;;14.50;58.44;92844.22;5049844;28;20039;-77
2022/09/28 00:43:37;;;;;;;2.70;1.13;;;;;;;14.70;58.54;92874.34;5053175;28;20652;-77
2022/09/28 00:46:08;;;;;;;3.17;1.20;;;;;;;14.73;58.86;92879.72;5053061;28;20563;-77
2022/09/28 00:48:38;;;;;;;4.70;1.20;;;;;;;14.76;58.74;92878.25;5051640;28;20085;-77
2022/09/28 00:51:10;;;;;;;2.15;1.30;;;;;;;14.74;58.63;92883.97;5051880;28;20025;-78
2022/09/28 00:53:38;;;;;;;1.13;0.98;;;;;;;14.74;58.32;92880.50;5054202;28;20032;-77
2022/09/28 00:56:08;;;;;;;1.33;1.00;;;;;;;14.72;58.33;92872.84;5050736;28;20021;-78
2022/09/28 00:58:40;;;;;;;2.80;1.50;;;;;;;14.72;57.98;92878.19;5054803;28;20036;-77
2022/09/28 01:01:06;;;;;;;1.83;1.10;;;;;;;14.55;58.26;92870.69;5052159;28;20557;-77
2022/09/28 01:03:32;;;;;;;2.95;1.27;;;;;;;14.65;58.63;92883.44;5052854;28;20020;-78
2022/09/28 01:06:01;;;;;;;2.25;1.10;;;;;;;14.65;58.88;92882.69;5052785;28;20024;-77
2022/09/28 01:08:28;;;;;;;4.22;1.35;;;;;;;14.69;58.92;92884.28;5051990;28;20029;-78
2022/09/28 01:10:53;;;;;;;2.33;1.13;;;;;;;14.59;58.73;92864.25;5053015;28;20312;-77
2022/09/28 01:13:20;;;;;;;1.75;1.17;;;;;;;14.71;59.00;92883.91;5052524;28;20308;-78
2022/09/28 01:16:23;;;;;;;3.15;1.48;;;;;;;14.72;58.76;92882.75;5053609;28;20496;-78
2022/09/28 01:19:10;;;;;;;2.97;1.30;;;;;;;14.69;58.88;92880.81;5052675;28;20024;-78
2022/09/28 01:22:10;;;;;;;1.90;1.10;;;;;;;14.59;58.68;92880.31;5050624;28;20048;-77
2022/09/28 01:24:55;;;;;;;2.05;1.00;;;;;;;14.43;59.14;92857.47;5049124;28;20052;-77
2022/09/28 01:27:43;;;;;;;3.42;1.10;;;;;;;14.50;58.96;92865.63;5048906;28;20055;-77
2022/09/28 01:30:17;;;;;;;1.95;1.33;;;;;;;14.47;58.88;92874.38;5049122;28;20394;-77
2022/09/28 01:33:11;;;;;;;7.80;1.25;;;;;;;14.48;59.04;92879.34;5054948;28;20470;-77
2022/09/28 01:35:56;;;;;;;1.10;1.00;;;;;;;14.50;59.35;92877.09;5017995;28;20156;-76
2022/09/28 01:38:25;;;;;;;1.37;1.20;;;;;;;14.28;58.74;92859.16;5051275;28;20044;-78
2022/09/28 01:40:52;;;;;;;2.28;1.10;;;;;;;14.19;59.31;92878.13;5052173;28;20703;-77
2022/09/28 01:43:26;;;;;;;1.60;1.10;;;;;;;14.31;59.52;92879.84;5052167;28;20051;-79
2022/09/28 01:46:00;;;;;;;2.38;1.58;;;;;;;14.12;59.26;92861.22;5051741;28;20384;-77
2022/09/28 01:48:36;;;;;;;1.83;0.95;;;;;;;14.24;59.48;92884.31;5052743;28;20025;-77
2022/09/28 01:51:07;;;;;;;1.58;1.10;;;;;;;14.28;59.36;92890.47;5052285;28;20037;-76
2022/09/28 01:53:40;;;;;;;5.63;2.17;;;;;;;14.29;59.62;92887.44;5052528;28;20020;-76
2022/09/28 01:56:14;;;;;;;1.83;1.15;;;;;;;14.36;59.46;92882.22;5050547;28;20028;-78
2022/09/28 01:58:43;;;;;;;;;;;;;;;13.92;59.19;92841.00;5052905;28;20025;-77
2022/09/28 02:01:16;;;;;;;1.20;1.10;;;;;;;14.21;59.39;92883.13;5051417;28;19907;-77
2022/09/28 02:03:58;;;;;;;1.13;0.90;;;;;;;14.25;59.34;92891.19;5053445;28;20071;-79
2022/09/28 02:06:35;;;;;;;1.70;1.15;;;;;;;14.21;59.43;92896.50;5050091;28;20082;-77
2022/09/28 02:09:11;;;;;;;1.98;1.20;;;;;;;14.25;59.41;92897.31;5054864;28;20032;-78
2022/09/28 02:11:42;;;;;;;1.38;1.23;;;;;;;14.30;59.26;92898.91;5051611;28;20028;-77
2022/09/28 02:14:11;;;;;;;1.50;1.15;;;;;;;14.25;59.03;92885.84;5051009;28;20737;-78
2022/09/28 02:16:42;;;;;;;1.52;1.10;;;;;;;14.31;59.28;92887.88;5051910;28;20041;-78
2022/09/28 02:19:14;;;;;;;2.47;1.30;;;;;;;14.30;59.34;92893.56;5052511;28;21257;-79
2022/09/28 02:21:46;;;;;;;3.13;1.10;;;;;;;14.28;59.00;92896.59;5052968;28;20052;-77
2022/09/28 02:24:17;;;;;;;3.47;1.30;;;;;;;14.33;59.36;92885.59;5052731;28;20575;-77
2022/09/28 02:26:46;;;;;;;1.75;1.38;;;;;;;14.12;59.17;92861.22;5056137;28;20098;-77
2022/09/28 02:29:12;;;;;;;3.28;1.17;;;;;;;14.16;59.05;92867.38;5055344;28;20020;-77
2022/09/28 02:31:38;;;;;;;1.27;1.17;;;;;;;14.26;58.86;92895.41;5057635;28;20020;-76
2022/09/28 02:34:04;;;;;;;2.17;1.40;;;;;;;14.22;58.63;92881.22;5057192;28;20062;-77
2022/09/28 02:36:30;;;;;;;3.40;1.35;;;;;;;14.29;58.76;92898.16;5057327;28;20021;-78
2022/09/28 02:38:57;;;;;;;1.80;1.33;;;;;;;14.24;58.95;92877.06;5053527;28;20028;-77
2022/09/28 02:41:22;;;;;;;2.35;1.20;;;;;;;14.30;59.00;92877.53;5056389;28;20036;-77
2022/09/28 02:43:50;;;;;;;4.80;1.58;;;;;;;14.27;59.02;92881.69;5056644;28;20387;-77
2022/09/28 02:46:48;;;;;;;2.97;1.33;;;;;;;14.14;58.65;92869.63;5053347;28;20503;-76
2022/09/28 02:49:44;;;;;;;1.30;1.20;;;;;;;14.27;58.63;92895.06;5054552;28;20119;-77
2022/09/28 02:52:39;;;;;;;1.42;1.15;;;;;;;14.27;58.69;92896.97;5056936;28;20565;-77
2022/09/28 02:55:05;;;;;;;4.93;1.25;;;;;;;14.25;58.74;92899.22;5056582;28;20526;-78
2022/09/28 02:58:00;;;;;;;1.48;1.10;;;;;;;14.23;58.75;92899.56;5054944;28;20049;-77
2022/09/28 03:00:26;;;;;;;4.55;1.70;;;;;;;14.18;58.51;92907.88;5048169;28;20052;-76
2022/09/28 03:03:14;;;;;;;5.03;1.85;;;;;;;14.18;58.51;92906.00;5062919;28;20148;-77
2022/09/28 03:06:04;;;;;;;5.97;2.15;;;;;;;14.20;58.88;92911.00;5054586;28;20502;-77
2022/09/28 03:08:48;;;;;;;2.15;1.85;;;;;;;14.12;59.02;92904.00;5056661;28;20301;-77
2022/09/28 03:11:23;;;;;;;3.78;1.60;;;;;;;14.00;59.04;92896.13;5057607;28;20065;-77
2022/09/28 03:13:49;;;;;;;4.53;2.57;;;;;;;13.99;59.42;92902.59;5053932;28;20483;-77
2022/09/28 03:16:16;;;;;;;1.75;1.50;;;;;;;14.12;59.37;92923.47;5057349;28;20284;-77
2022/09/28 03:18:42;;;;;;;1.92;1.52;;;;;;;14.02;59.75;92907.25;5053211;28;20028;-77
2022/09/28 03:21:10;;;;;;;3.15;1.65;;;;;;;13.99;59.86;92900.69;5054859;28;20543;-77
2022/09/28 03:23:36;;;;;;;3.15;1.63;;;;;;;14.14;59.70;92928.44;5054063;28;20033;-77
2022/09/28 03:26:01;;;;;;;4.60;1.75;;;;;;;14.12;59.66;92918.13;5055231;28;20028;-77
2022/09/28 03:28:27;;;;;;;3.20;1.60;;;;;;;14.11;60.27;92923.81;5054969;28;20482;-78
2022/09/28 03:30:52;;;;;;;5.47;2.53;;;;;;;14.13;60.09;92937.63;5056620;28;20035;-78
2022/09/28 03:33:18;;;;;;;2.17;1.70;;;;;;;13.74;61.05;92897.59;5056062;28;20028;-77
2022/09/28 03:35:49;;;;;;;3.50;1.80;;;;;;;13.94;61.26;92913.59;5057330;28;20033;-78
2022/09/28 03:38:15;;;;;;;4.10;1.80;;;;;;;14.12;60.99;92941.41;5055007;28;20035;-77
2022/09/28 03:40:41;;;;;;;3.70;2.05;;;;;;;13.94;61.24;92905.56;5054354;28;20467;-77
2022/09/28 03:43:06;;;;;;;2.17;1.67;;;;;;;14.17;61.44;92936.56;5055289;28;20052;-79
2022/09/28 03:45:32;;;;;;;2.03;1.83;;;;;;;13.80;61.88;92875.91;5057029;28;20111;-77
2022/09/28 03:47:57;;;;;;;4.38;1.80;;;;;;;14.00;61.68;92893.44;5053203;28;20100;-77
2022/09/28 03:50:22;;;;;;;2.35;1.80;;;;;;;13.97;61.74;92880.81;5055692;28;20028;-78
2022/09/28 03:52:48;;;;;;;2.33;2.03;;;;;;;14.18;61.77;92919.34;5049859;28;20016;-79
2022/09/28 03:55:13;;;;;;;2.30;1.85;;;;;;;14.22;61.49;92924.00;5054682;28;20586;-78
2022/09/28 03:57:39;;;;;;;1.98;1.67;;;;;;;14.17;61.82;92911.72;5054106;28;20136;-77
2022/09/28 04:00:05;;;;;;;2.42;1.90;;;;;;;14.20;62.05;92919.00;5055588;28;20383;-76
2022/09/28 04:02:30;;;;;;;2.85;2.10;;;;;;;14.37;61.88;92931.91;5054301;28;20021;-77
2022/09/28 04:04:55;;;;;;;3.33;1.85;;;;;;;14.26;61.76;92912.25;5055630;28;20025;-78
2022/09/28 04:07:21;;;;;;;3.20;1.90;;;;;;;14.41;61.92;92938.09;5052838;28;20033;-79
2022/09/28 04:09:47;;;;;;;3.20;2.50;;;;;;;14.32;62.10;92920.75;5051262;28;20032;-77
2022/09/28 04:12:12;;;;;;;3.30;2.28;;;;;;;14.27;61.86;92907.66;5055422;28;20023;-77
2022/09/28 04:14:37;;;;;;;7.22;2.55;;;;;;;14.28;61.71;92912.63;5054817;28;20047;-78
2022/09/28 04:17:03;;;;;;;3.75;2.97;;;;;;;14.25;61.75;92902.66;5051096;28;20025;-79
2022/09/28 04:19:29;;;;;;;3.13;2.60;;;;;;;14.32;62.02;92923.41;5052990;28;20051;-78
2022/09/28 04:21:54;;;;;;;5.65;2.28;;;;;;;14.19;62.03;92904.88;5052469;28;20127;-77
2022/09/28 04:24:20;;;;;;;3.25;2.42;;;;;;;14.22;62.09;92913.31;5051738;28;20052;-77
2022/09/28 04:26:45;;;;;;;4.13;2.47;;;;;;;14.44;62.12;92937.38;5061233;28;20092;-78
2022/09/28 04:29:14;;;;;;;4.95;2.63;;;;;;;14.46;62.42;92948.50;5052792;28;20446;-77
2022/09/28 04:31:50;;;;;;;4.65;2.33;;;;;;;14.29;62.21;92924.88;5051523;28;20029;-77
2022/09/28 04:34:18;;;;;;;2.80;2.40;;;;;;;14.43;62.15;92941.16;5049488;28;20032;-77
2022/09/28 04:36:44;;;;;;;3.60;2.58;;;;;;;14.43;62.30;92941.16;5048722;28;20020;-77
2022/09/28 04:39:11;;;;;;;3.40;2.60;;;;;;;14.30;62.26;92913.06;5048193;28;20032;-79
2022/09/28 04:41:36;;;;;;;3.10;2.10;;;;;;;14.41;62.54;92910.56;5049975;28;20478;-77
2022/09/28 04:44:02;;;;;;;2.70;2.40;;;;;;;14.45;62.76;92917.53;5050651;28;20050;-78
2022/09/28 04:46:28;;;;;;;4.25;2.25;;;;;;;14.55;63.06;92935.69;5050987;28;20028;-78
2022/09/28 04:48:53;;;;;;;5.50;2.38;;;;;;;14.50;62.75;92925.25;5051929;28;20483;-77
2022/09/28 04:51:18;;;;;;;6.53;4.47;;;;;;;14.47;62.78;92904.53;5049957;28;20024;-77
2022/09/28 04:53:44;;;;;;;5.15;4.53;;;;;;;14.43;62.92;92901.03;5050019;28;20032;-78
2022/09/28 04:56:13;;;;;;;9.50;3.72;;;;;;;14.53;62.75;92919.19;5049791;28;20483;-77
2022/09/28 04:58:40;;;;;;;5.60;3.33;;;;;;;14.45;62.72;92898.78;5049440;28;20025;-78
2022/09/28 05:01:12;;;;;;;4.93;3.05;;;;;;;14.66;62.73;92937.75;5048287;28;20485;-77
2022/09/28 05:03:37;;;;;;;5.38;3.42;;;;;;;14.20;63.46;92889.59;5051042;28;20473;-77
2022/09/28 05:06:03;;;;;;;6.90;3.55;;;;;;;14.41;63.46;92911.34;5048783;28;20024;-77
2022/09/28 05:08:29;;;;;;;4.97;3.05;;;;;;;14.44;63.57;92913.28;5052804;28;20146;-77
2022/09/28 05:10:59;;;;;;;5.40;3.20;;;;;;;14.68;63.19;92946.16;5050010;28;20029;-78
2022/09/28 05:13:25;;;;;;;5.78;2.97;;;;;;;14.69;62.77;92939.69;5051150;28;20501;-78
2022/09/28 05:15:53;;;;;;;5.63;2.78;;;;;;;14.78;62.78;92940.22;5048383;28;20087;-78
2022/09/28 05:18:19;;;;;;;6.03;3.33;;;;;;;14.67;62.71;92915.97;5052977;28;20120;-77
2022/09/28 05:20:44;;;;;;;3.30;2.47;;;;;;;14.85;62.98;92940.31;5050347;28;20036;-77
2022/09/28 05:23:11;;;;;;;5.05;2.30;;;;;;;14.75;62.68;92922.22;5051151;28;20041;-77
2022/09/28 05:25:37;;;;;;;3.95;2.10;;;;;;;14.92;62.56;92951.13;5050451;28;20028;-78
2022/09/28 05:28:03;;;;;;;4.60;2.30;;;;;;;14.54;63.06;92887.88;5049895;28;20123;-77
2022/09/28 05:30:28;;;;;;;5.18;3.92;;;;;;;14.93;63.57;92932.03;5049799;28;20124;-78
2022/09/28 05:32:54;;;;;;;5.13;3.78;;;;;;;14.86;63.51;92915.13;5050284;28;20025;-74
2022/09/28 05:35:19;;;;;;;6.70;4.15;;;;;;;14.93;63.42;92936.63;5051029;28;20079;-78
2022/09/28 05:37:45;;;;;;;13.70;5.68;;;;;;;14.88;63.32;92928.88;5052000;28;20051;-79
2022/09/28 05:40:11;;;;;;;9.38;4.65;;;;;;;14.87;63.96;92922.00;5048955;28;20791;-77
2022/09/28 05:42:36;;;;;;;10.52;4.78;;;;;;;14.73;64.07;92908.41;5053075;28;20029;-77
2022/09/28 05:45:05;;;;;;;10.07;5.32;;;;;;;14.99;63.45;92935.94;5050418;28;20029;-77
2022/09/28 05:47:36;;;;;;;8.57;4.95;;;;;;;15.14;63.30;92962.94;5051690;28;20091;-78
2022/09/28 05:50:01;;;;;;;9.18;4.75;;;;;;;15.21;63.48;92954.97;5053327;28;20025;-77
2022/09/28 05:52:26;;;;;;;7.22;4.85;;;;;;;15.11;63.30;92929.59;5050742;28;20467;-77
2022/09/28 05:54:52;;;;;;;7.00;5.25;;;;;;;15.25;62.71;92942.44;5051472;28;20051;-78
2022/09/28 05:57:17;;;;;;;10.23;6.03;;;;;;;15.31;62.71;92952.44;5050326;28;20487;-77
2022/09/28 05:59:42;;;;;;;7.07;5.18;;;;;;;15.40;63.00;92960.97;5051612;28;20021;-77
2022/09/28 06:02:09;;;;;;;6.97;5.72;;;;;;;15.23;63.39;92910.63;5053283;28;20020;-77
2022/09/28 06:04:34;;;;;;;11.18;5.28;;;;;;;15.30;63.47;92909.97;5053005;28;20025;-77
2022/09/28 06:07:00;;;;;;;8.57;4.55;;;;;;;15.58;64.02;92957.78;5054312;28;20036;-78
2022/09/28 06:09:25;;;;;;;3.78;2.58;;;;;;;15.50;62.69;92924.75;5053681;28;20517;-78
2022/09/28 06:11:51;;;;;;;4.95;3.25;;;;;;;15.71;62.76;92943.78;5053667;28;20021;-77
2022/09/28 06:14:17;;;;;;;6.75;4.88;;;;;;;15.79;64.36;92945.41;5055694;28;20032;-78
2022/09/28 06:16:43;;;;;;;7.30;5.07;;;;;;;15.87;63.86;92951.63;5052976;28;20028;-77
2022/09/28 06:19:09;;;;;;;8.27;4.90;;;;;;;16.01;64.27;92959.81;5053657;28;20376;-78
2022/09/28 06:21:35;;;;;;;7.55;5.65;;;;;;;16.11;63.92;92961.06;5053218;28;20597;-76
2022/09/28 06:24:01;;;;;;;7.15;5.80;;;;;;;16.09;62.63;92950.69;5053910;28;20032;-77
2022/09/28 06:26:26;;;;;;;13.27;6.65;;;;;;;16.15;62.50;92968.00;5053127;28;20536;-78
2022/09/28 06:28:52;;;;;;;11.02;7.50;;;;;;;15.97;62.80;92948.28;5053664;28;20037;-79
2022/09/28 06:31:22;;;;;;;12.32;7.47;;;;;;;16.16;62.78;92977.59;5055747;28;20032;-75
2022/09/28 06:33:48;;;;;;;11.00;7.40;;;;;;;16.19;63.04;92973.41;5053617;28;20048;-78
2022/09/28 06:36:14;;;;;;;13.77;7.97;;;;;;;16.07;62.70;92955.69;5053968;28;20108;-78
2022/09/28 06:38:40;;;;;;;14.98;7.80;;;;;;;16.19;63.00;92978.78;5049452;28;20035;-77
2022/09/28 06:41:05;;;;;;;10.90;7.63;;;;;;;16.22;63.52;92975.38;5054184;28;20475;-78
2022/09/28 06:43:32;;;;;;;14.80;7.15;;;;;;;16.11;63.05;92953.78;5053391;28;20024;-78
2022/09/28 06:45:58;;;;;;;11.23;7.38;;;;;;;16.33;63.29;92985.06;5053112;28;20517;-78
2022/09/28 06:48:23;;;;;;;13.88;7.57;;;;;;;16.33;62.44;92987.75;5053633;28;20032;-78
2022/09/28 06:50:49;;;;;;;12.40;7.65;;;;;;;16.27;62.69;92975.81;5052721;28;20128;-77
2022/09/28 06:53:14;;;;;;;10.85;7.07;;;;;;;16.29;63.07;92986.16;5053566;28;20544;-78
2022/09/28 06:55:41;;;;;;;7.07;5.63;;;;;;;16.28;61.65;92982.69;5053570;28;20035;-78
2022/09/28 06:58:10;;;;;;;12.13;6.32;;;;;;;16.25;61.29;92961.97;5053022;28;20530;-77
2022/09/28 07:00:38;;;;;;;9.75;6.60;;;;;;;16.35;61.94;92978.59;5051647;28;20849;-77
2022/09/28 07:03:05;;;;;;;10.13;5.28;;;;;;;16.06;61.00;92935.34;5049404;28;20021;-77
2022/09/28 07:05:34;;;;;;;10.02;6.68;;;;;;;16.29;61.63;92964.69;5050020;28;20383;-79
2022/09/28 07:08:00;;;;;;;9.93;6.55;;;;;;;16.38;61.82;92989.34;5051699;28;20020;-79
2022/09/28 07:10:27;;;;;;;7.65;5.97;;;;;;;16.13;60.82;92953.44;5052509;28;20467;-77
2022/09/28 07:12:54;;;;;;;9.98;6.53;;;;;;;16.24;60.88;92960.44;5052519;28;20137;-78
2022/09/28 07:15:20;;;;;;;10.00;7.20;;;;;;;16.18;61.21;92953.84;5050973;28;20025;-77
2022/09/28 07:17:46;;;;;;;8.10;6.22;;;;;;;16.14;60.66;92938.88;5050982;28;20052;-77
2022/09/28 07:20:12;;;;;;;12.57;7.32;;;;;;;16.34;61.29;92975.13;5053088;28;20048;-77
2022/09/28 07:22:38;;;;;;;14.50;9.35;;;;;;;16.39;61.99;92976.69;5050983;28;20392;-78
2022/09/28 07:25:08;;;;;;;10.50;7.75;;;;;;;16.50;62.22;92991.00;5054113;28;20024;-78
2022/09/28 07:27:36;;;;;;;12.50;8.95;;;;;;;16.57;61.83;92974.97;5051281;28;20040;-77
2022/09/28 07:30:03;;;;;;;11.75;7.45;;;;;;;16.63;61.55;92984.97;5068206;28;20040;-77
2022/09/28 07:32:30;;;;;;;9.88;6.32;;;;;;;16.70;60.32;92981.59;5050472;28;20024;-77
2022/09/28 07:34:56;;;;;;;14.95;10.57;;;;;;;16.65;60.32;92992.66;5052957;28;20052;-77
2022/09/28 07:37:23;;;;;;;16.27;11.43;;;;;;;16.55;61.57;93009.44;5053961;28;20123;-77
2022/09/28 07:42:32;;;;;;;19.92;11.75;;;;;;;16.57;61.64;93007.19;5053615;28;20082;-77
2022/09/28 07:44:58;;;;;;;27.13;11.23;;;;;;;16.48;62.17;92995.94;5050741;28;20491;-77
2022/09/28 07:47:27;;;;;;;15.98;11.23;;;;;;;16.65;61.82;93000.72;5063780;28;20020;-77
2022/09/28 07:49:55;;;;;;;19.60;9.93;;;;;;;16.46;62.03;92988.28;5051849;28;20024;-77
2022/09/28 07:52:24;;;;;;;16.25;9.18;;;;;;;16.57;61.78;92985.69;5048601;28;20024;-77
2022/09/28 07:54:53;;;;;;;12.02;6.93;;;;;;;16.69;60.64;93004.97;5048476;28;20105;-76
2022/09/28 07:57:21;;;;;;;11.40;6.70;;;;;;;16.74;60.22;93014.59;5050505;28;20040;-77
2022/09/28 07:59:48;;;;;;;13.40;7.00;;;;;;;16.70;59.68;93003.84;5047115;28;20040;-76
2022/09/28 08:02:14;;;;;;;10.32;7.15;;;;;;;16.56;58.82;92970.72;5054170;28;20033;-77
2022/09/28 08:04:40;;;;;;;9.10;6.47;;;;;;;16.78;60.13;93010.03;5047639;28;20039;-75
2022/09/28 08:07:09;;;;;;;10.68;6.45;;;;;;;16.77;60.18;93013.09;5049044;28;20878;-76
2022/09/28 08:09:35;;;;;;;14.98;6.82;;;;;;;16.68;59.21;92997.28;5047502;28;20582;-76
2022/09/28 08:12:02;;;;;;;11.10;5.68;;;;;;;16.65;58.46;93000.72;5052141;28;20024;-76
2022/09/28 08:14:32;;;;;;;11.25;6.45;;;;;;;16.71;59.68;93016.13;5047829;28;20032;-77
2022/09/28 08:16:58;;;;;;;8.50;5.43;;;;;;;16.64;60.13;92993.81;5049337;28;20021;-75
2022/09/28 08:19:23;;;;;;;11.85;5.47;;;;;;;16.71;60.02;93005.38;5048978;28;20582;-75
2022/09/28 08:21:49;;;;;;;8.77;5.65;;;;;;;16.45;59.09;92961.81;5047184;28;20041;-75
2022/09/28 08:24:16;;;;;;;12.48;5.35;;;;;;;16.84;58.78;93016.63;5048774;28;20479;-76
2022/09/28 08:26:43;;;;;;;9.10;4.95;;;;;;;16.86;58.18;93022.41;5048783;28;20040;-76
2022/09/28 08:29:09;;;;;;;6.57;4.25;;;;;;;16.87;57.36;93023.91;5051069;28;20024;-76
2022/09/28 08:31:34;;;;;;;10.38;5.25;;;;;;;16.75;57.57;92994.69;5047324;28;20059;-77
2022/09/28 08:34:00;;;;;;;9.93;6.07;;;;;;;16.81;57.83;93011.22;5051189;28;20033;-77
2022/09/28 08:36:27;;;;;;;8.88;5.38;;;;;;;16.50;58.49;92964.16;5049082;28;20036;-76
2022/09/28 08:38:53;;;;;;;13.38;5.70;;;;;;;16.85;59.25;93009.34;5048545;28;20115;-76
2022/09/28 08:41:29;;;;;;;10.38;5.50;;;;;;;16.77;58.93;93006.56;5049658;28;20025;-76
2022/09/28 08:44:22;;;;;;;13.25;9.80;;;;;;;16.84;59.26;93008.56;5044167;28;20498;-78
2022/09/28 08:46:58;;;;;;;11.60;7.13;;;;;;;16.62;60.42;92977.31;5048153;28;20040;-77
2022/09/28 08:49:46;;;;;;;9.73;5.53;;;;;;;16.58;60.45;92971.88;5052010;28;20040;-78
2022/09/28 08:52:22;;;;;;;6.30;5.18;;;;;;;16.74;59.83;92998.50;5047627;28;20125;-78
2022/09/28 08:54:57;;;;;;;12.95;6.05;;;;;;;16.72;59.61;92979.31;5049692;28;20060;-77
2022/09/28 08:57:32;;;;;;;8.60;5.55;;;;;;;16.91;59.88;93003.25;5043556;28;20284;-78
2022/09/28 08:59:59;;;;;;;7.90;5.25;;;;;;;16.83;59.79;93001.63;5048453;28;20032;-77
2022/09/28 09:02:32;;;;;;;7.15;5.43;;;;;;;16.71;59.48;92973.19;5049195;28;20634;-78
2022/09/28 09:04:59;;;;;;;9.10;4.88;;;;;;;16.96;60.01;92994.84;5051022;28;20020;-78
2022/09/28 09:07:38;;;;;;;6.82;5.00;;;;;;;17.01;59.62;92996.44;5051104;28;20028;-77
2022/09/28 09:10:35;;;;;;;8.63;5.57;;;;;;;17.09;60.11;92998.00;5050523;28;20040;-77
2022/09/28 09:13:12;;;;;;;8.18;5.30;;;;;;;17.16;60.57;92998.84;5049188;28;20598;-77
2022/09/28 09:15:54;;;;;;;6.97;4.40;;;;;;;17.15;59.34;92994.63;5049210;28;20083;-77
2022/09/28 09:18:28;;;;;;;6.22;3.88;;;;;;;17.26;59.59;92992.00;5050443;28;20021;-78
2022/09/28 09:21:01;;;;;;;5.55;3.53;;;;;;;17.29;58.39;92988.59;5047179;28;20020;-77
2022/09/28 09:23:37;;;;;;;5.35;3.03;;;;;;;17.34;57.86;92976.72;5049790;28;20128;-78
2022/09/28 09:26:29;;;;;;;4.85;3.30;;;;;;;17.35;56.88;92978.25;5048676;28;20029;-76
2022/09/28 09:29:12;;;;;;;4.18;2.88;;;;;;;17.39;56.65;92985.19;5041127;28;20047;-77
2022/09/28 09:32:18;;;;;;;4.65;2.83;;;;;;;17.41;55.68;92982.09;5049691;28;20028;-77
2022/09/28 09:35:19;;;;;;;5.93;2.75;;;;;;;17.50;55.81;92982.56;4993767;28;20078;-77
2022/09/28 09:38:06;;;;;;;5.53;2.58;;;;;;;17.57;55.40;92980.66;5051013;28;20646;-77
2022/09/28 09:40:46;;;;;;;4.63;2.90;;;;;;;17.64;56.16;92979.16;5048856;28;20055;-78
2022/09/28 09:43:37;;;;;;;4.78;3.05;;;;;;;17.66;56.64;92966.88;5050312;28;20414;-77
2022/09/28 09:46:31;;;;;;;7.43;2.63;;;;;;;17.73;56.04;92971.53;5050196;28;20086;-77
2022/09/28 09:49:03;;;;;;;4.88;3.38;;;;;;;17.82;56.08;92978.09;5050342;28;20017;-77
2022/09/28 09:51:56;;;;;;;6.72;3.35;;;;;;;17.86;55.89;92976.19;5054468;28;20032;-78
2022/09/28 09:54:33;;;;;;;4.88;3.00;;;;;;;17.89;55.97;92958.53;5056199;28;20550;-76
2022/09/28 09:57:04;;;;;;;5.80;2.55;;;;;;;17.74;54.89;92941.59;5045458;28;20533;-77
2022/09/28 09:59:38;;;;;;;6.38;2.88;;;;;;;18.00;53.64;92975.50;5047509;28;20058;-78
2022/09/28 10:02:26;;;;;;;5.32;2.30;;;;;;;18.06;54.23;92968.59;5045969;28;20040;-76
2022/09/28 10:05:01;;;;;;;5.75;2.40;;;;;;;18.16;53.79;92977.84;5051317;28;20086;-79
2022/09/28 10:07:38;;;;;;;6.30;2.47;;;;;;;18.02;53.24;92947.06;5051127;28;20041;-78
2022/09/28 10:10:11;;;;;;;7.32;3.45;;;;;;;18.30;53.70;92961.75;5050599;28;20071;-77
2022/09/28 10:12:38;;;;;;;9.23;2.40;;;;;;;18.28;53.40;92959.44;5048790;28;20029;-78
2022/09/28 10:15:06;;;;;;;4.78;2.10;;;;;;;18.41;53.69;92967.91;5049498;28;20052;-76
2022/09/28 10:17:33;;;;;;;3.30;2.67;;;;;;;18.38;52.99;92947.91;5047435;28;20569;-77
2022/09/28 10:19:59;;;;;;;3.38;2.17;;;;;;;18.52;51.65;92960.63;5048971;28;20434;-78
2022/09/28 10:22:27;;;;;;;3.85;1.88;;;;;;;18.54;51.12;92947.53;5045984;28;20049;-78
2022/09/28 10:24:56;;;;;;;3.60;1.92;;;;;;;18.64;50.20;92946.00;5050098;28;20898;-79
2022/09/28 10:27:34;;;;;;;5.82;2.97;;;;;;;18.43;51.04;92903.72;5051115;28;20040;-78
2022/09/28 10:30:19;;;;;;;3.30;2.05;;;;;;;18.68;50.95;92925.22;5049462;28;20617;-77
2022/09/28 10:32:47;;;;;;;4.75;2.08;;;;;;;18.64;50.59;92917.16;5044410;28;20491;-77
2022/09/28 10:35:21;;;;;;;3.35;2.15;;;;;;;18.85;50.45;92932.59;5049203;28;20035;-77
2022/09/28 10:38:03;;;;;;;2.92;1.70;;;;;;;18.87;50.19;92931.03;5048215;28;20051;-77
2022/09/28 10:40:45;;;;;;;2.47;1.48;;;;;;;18.92;49.49;92931.81;5053642;28;20028;-78
2022/09/28 10:43:25;;;;;;;3.30;1.95;;;;;;;18.88;49.45;92923.72;5048011;28;20033;-78
2022/09/28 10:46:03;;;;;;;2.42;1.60;;;;;;;18.96;48.92;92927.19;5052153;28;20024;-78
2022/09/28 10:48:44;;;;;;;2.97;1.73;;;;;;;18.88;49.42;92900.25;5052583;28;20123;-78
2022/09/28 10:51:10;;;;;;;2.67;1.60;;;;;;;19.18;49.23;92934.06;5051191;28;20047;-77
2022/09/28 10:53:38;;;;;;;3.45;1.50;;;;;;;19.25;48.34;92926.00;5049958;28;20021;-78
2022/09/28 10:56:19;;;;;;;3.30;1.30;;;;;;;19.28;47.35;92925.97;5052882;28;20032;-77
2022/09/28 10:58:44;;;;;;;2.05;1.40;;;;;;;19.21;47.20;92895.59;5049945;28;20486;-77
2022/09/28 11:01:12;;;;;;;3.92;2.75;;;;;;;19.24;46.46;92884.00;5053548;28;20059;-78
2022/09/28 11:03:48;;;;;;;2.70;1.77;;;;;;;19.45;44.65;92920.97;5050774;28;20117;-77
2022/09/28 11:06:14;;;;;;;2.45;1.27;;;;;;;19.48;48.58;92915.56;5053971;28;20095;-76
2022/09/28 11:08:42;;;;;;;5.78;1.33;;;;;;;19.54;46.27;92914.00;5051319;28;20029;-76
2022/09/28 11:11:11;;;;;;;2.10;1.48;;;;;;;19.23;46.66;92890.56;5052365;28;20067;-77
2022/09/28 11:14:07;;;;;;;3.22;1.27;;;;;;;19.24;47.87;92870.53;5053452;28;20414;-77
2022/09/28 11:16:33;;;;;;;;;;;;;;;19.59;47.57;92902.03;5047379;28;20691;-77
2022/09/28 11:19:17;;;;;;;2.88;1.42;;;;;;;19.63;44.75;92889.31;5054239;28;20272;-77
2022/09/28 11:21:45;;;;;;;2.78;1.58;;;;;;;19.67;44.88;92885.44;5051318;28;20049;-78
2022/09/28 11:24:16;;;;;;;2.58;1.45;;;;;;;19.81;45.07;92886.50;5050894;28;20036;-77
2022/09/28 11:26:44;;;;;;;2.08;1.42;;;;;;;19.86;43.79;92886.09;5051257;28;20108;-77
2022/09/28 11:29:19;;;;;;;4.72;1.52;;;;;;;19.90;44.73;92876.06;5051112;28;20029;-77
2022/09/28 11:31:45;;;;;;;;;;;;;;;20.02;44.53;92872.91;5052914;28;20086;-78
2022/09/28 11:34:46;;;;;;;3.10;1.10;;;;;;;19.84;43.40;92839.88;5051984;28;19916;-77
2022/09/28 11:37:33;;;;;;;1.23;1.10;;;;;;;20.11;43.46;92879.41;5051722;28;20045;-77
2022/09/28 11:40:33;;;;;;;1.80;1.20;;;;;;;20.13;43.73;92868.22;5045069;28;20087;-77
2022/09/28 11:43:23;;;;;;;2.95;1.77;;;;;;;20.14;43.46;92873.22;5050213;28;20025;-78
2022/09/28 11:46:24;;;;;;;1.55;1.10;;;;;;;20.13;43.17;92860.91;5040180;28;20480;-78
2022/09/28 11:49:06;;;;;;;2.28;1.52;;;;;;;20.20;41.90;92880.94;5041852;28;20201;-77
2022/09/28 11:51:36;;;;;;;4.38;1.52;;;;;;;20.28;42.44;92885.13;5052271;28;20030;-77
2022/09/28 11:54:18;;;;;;;2.35;1.40;;;;;;;20.17;40.77;92864.38;5053350;28;20021;-77